Time;durP1;ratioP1;P1;durP2;ratioP2;P2;SDS_P1;SDS_P2;PMS_P1;PMS_P2;Temp;Humidity;BMP_temperature;BMP_pressure;BME280_temperature;BME280_humidity;BME280_pressure;Samples;Min_cycle;Max_cycle;Signal;HPM_P1;HPM_P2
2022/10/29 00:00:41;;;;;;;19.77;11.73;;;;;;;;;;2106739;28;20413;-42
2022/10/29 00:01:42;;;;;;;24.35;13.25;;;;;;;;;;2106647;28;20040;-42
2022/10/29 00:02:43;;;;;;;19.20;12.10;;;;;;;;;;2106769;28;20068;-42
2022/10/29 00:03:46;;;;;;;26.15;12.95;;;;;;;;;;2106842;28;20544;-42
2022/10/29 00:04:47;;;;;;;22.92;13.00;;;;;;;;;;2106728;28;20048;-42
2022/10/29 00:05:57;;;;;;;21.88;12.77;;;;;;;;;;2106724;28;20047;-42
2022/10/29 00:06:59;;;;;;;25.23;13.73;;;;;;;;;;2106723;28;20044;-42
2022/10/29 00:08:00;;;;;;;18.70;11.98;;;;;;;;;;2106818;28;20044;-42
2022/10/29 00:09:01;;;;;;;24.60;13.17;;;;;;;;;;2106699;28;20408;-42
2022/10/29 00:10:02;;;;;;;20.35;13.23;;;;;;;;;;2106720;28;20044;-42
2022/10/29 00:11:07;;;;;;;22.00;12.80;;;;;;;;;;2106594;28;20139;-42
2022/10/29 00:12:08;;;;;;;18.75;12.52;;;;;;;;;;2106588;28;20079;-42
2022/10/29 00:13:10;;;;;;;23.67;13.15;;;;;;;;;;2106870;28;20048;-45
2022/10/29 00:14:10;;;;;;;27.02;13.63;;;;;;;;;;2106805;28;20476;-43
2022/10/29 00:15:12;;;;;;;24.23;13.10;;;;;;;;;;2106841;28;20052;-42
2022/10/29 00:16:13;;;;;;;21.13;12.60;;;;;;;;;;2106782;28;20071;-45
2022/10/29 00:17:14;;;;;;;22.33;13.48;;;;;;;;;;2108392;28;20055;-45
2022/10/29 00:18:15;;;;;;;23.77;13.30;;;;;;;;;;2115162;28;20468;-46
2022/10/29 00:19:17;;;;;;;18.90;12.97;;;;;;;;;;2114920;28;20051;-46
2022/10/29 00:20:19;;;;;;;21.52;13.32;;;;;;;;;;2114951;28;20059;-46
2022/10/29 00:21:22;;;;;;;21.48;13.15;;;;;;;;;;2115018;28;20070;-45
2022/10/29 00:22:23;;;;;;;23.95;13.68;;;;;;;;;;2115084;28;20056;-45
2022/10/29 00:23:24;;;;;;;21.20;12.63;;;;;;;;;;2115308;28;20482;-44
2022/10/29 00:24:25;;;;;;;23.95;13.40;;;;;;;;;;2115045;28;20484;-45
2022/10/29 00:25:26;;;;;;;22.13;13.45;;;;;;;;;;2115039;28;20067;-45
2022/10/29 00:26:28;;;;;;;26.33;13.88;;;;;;;;;;2115110;28;20051;-45
2022/10/29 00:27:29;;;;;;;25.13;13.45;;;;;;;;;;2115174;28;20044;-45
2022/10/29 00:28:31;;;;;;;22.45;12.90;;;;;;;;;;2115093;28;20051;-45
2022/10/29 00:29:32;;;;;;;22.13;12.95;;;;;;;;;;2114939;28;20151;-45
2022/10/29 00:30:34;;;;;;;21.70;13.45;;;;;;;;;;2115080;28;20073;-45
2022/10/29 00:31:35;;;;;;;20.23;12.68;;;;;;;;;;2114872;28;20039;-46
2022/10/29 00:32:36;;;;;;;24.90;13.82;;;;;;;;;;2115171;28;20067;-46
2022/10/29 00:33:37;;;;;;;23.90;13.53;;;;;;;;;;2114852;28;20050;-45
2022/10/29 00:34:38;;;;;;;23.40;13.82;;;;;;;;;;2115055;28;20048;-45
2022/10/29 00:35:39;;;;;;;19.87;12.60;;;;;;;;;;2114935;28;20503;-45
2022/10/29 00:36:40;;;;;;;27.20;14.70;;;;;;;;;;2106813;28;20037;-45
2022/10/29 00:37:41;;;;;;;25.10;14.57;;;;;;;;;;2106529;28;20040;-44
2022/10/29 00:38:42;;;;;;;21.60;12.82;;;;;;;;;;2106491;28;20044;-45
2022/10/29 00:39:43;;;;;;;24.97;14.67;;;;;;;;;;2106476;28;20147;-45
2022/10/29 00:40:44;;;;;;;23.58;14.18;;;;;;;;;;2106406;28;20405;-44
2022/10/29 00:41:45;;;;;;;23.83;13.83;;;;;;;;;;2106534;28;20074;-44
2022/10/29 00:42:47;;;;;;;23.83;14.68;;;;;;;;;;2106542;28;20101;-44
2022/10/29 00:43:49;;;;;;;33.08;15.93;;;;;;;;;;2106530;28;20048;-44
2022/10/29 00:44:50;;;;;;;;;;;;;;;;;;2107001;28;20048;-44
2022/10/29 00:45:52;;;;;;;26.65;15.82;;;;;;;;;;2106403;28;19923;-45
2022/10/29 00:46:55;;;;;;;28.10;16.00;;;;;;;;;;2106704;28;20075;-45
2022/10/29 00:47:56;;;;;;;27.20;16.13;;;;;;;;;;2106430;28;20044;-44
2022/10/29 00:48:58;;;;;;;26.88;16.05;;;;;;;;;;2106742;28;20129;-41
2022/10/29 00:50:01;;;;;;;27.75;16.67;;;;;;;;;;2106439;28;20051;-41
2022/10/29 00:51:04;;;;;;;27.95;16.50;;;;;;;;;;2106387;28;20048;-41
2022/10/29 00:52:06;;;;;;;25.38;16.02;;;;;;;;;;2106315;28;20048;-41
2022/10/29 00:53:07;;;;;;;26.45;15.45;;;;;;;;;;2106508;28;20074;-41
2022/10/29 00:54:09;;;;;;;30.60;18.13;;;;;;;;;;2106418;28;20059;-41
2022/10/29 00:55:14;;;;;;;29.95;17.40;;;;;;;;;;2106334;28;20070;-41
2022/10/29 00:56:15;;;;;;;23.02;15.40;;;;;;;;;;2106225;28;20052;-42
2022/10/29 00:57:17;;;;;;;29.50;17.58;;;;;;;;;;2106384;28;20044;-42
2022/10/29 00:58:19;;;;;;;27.38;16.63;;;;;;;;;;2106483;28;20177;-41
2022/10/29 00:59:20;;;;;;;26.17;16.60;;;;;;;;;;2106289;28;20385;-42
2022/10/29 01:00:21;;;;;;;27.05;16.33;;;;;;;;;;2106342;28;20489;-42
2022/10/29 01:01:22;;;;;;;26.30;15.68;;;;;;;;;;2106483;28;20061;-42
2022/10/29 01:02:25;;;;;;;27.30;17.42;;;;;;;;;;2106457;28;20044;-42
2022/10/29 01:03:26;;;;;;;26.02;15.90;;;;;;;;;;2106353;28;20051;-41
2022/10/29 01:04:27;;;;;;;26.60;16.23;;;;;;;;;;2106339;28;20193;-42
2022/10/29 01:05:29;;;;;;;26.67;16.63;;;;;;;;;;2106389;28;20052;-43
2022/10/29 01:06:30;;;;;;;26.85;15.85;;;;;;;;;;2106346;28;20287;-41
2022/10/29 01:07:31;;;;;;;27.05;16.92;;;;;;;;;;2106188;28;20036;-42
2022/10/29 01:08:32;;;;;;;24.97;15.93;;;;;;;;;;2106448;28;20122;-42
2022/10/29 01:09:33;;;;;;;25.92;16.55;;;;;;;;;;2106249;28;20618;-42
2022/10/29 01:10:40;;;;;;;27.03;17.17;;;;;;;;;;2106379;28;20084;-42
2022/10/29 01:11:45;;;;;;;25.92;16.42;;;;;;;;;;2106083;28;20052;-42
2022/10/29 01:12:55;;;;;;;26.67;16.00;;;;;;;;;;2106264;28;20443;-42
2022/10/29 01:14:01;;;;;;;27.27;16.77;;;;;;;;;;2106046;28;20085;-42
2022/10/29 01:15:07;;;;;;;27.42;16.13;;;;;;;;;;2106216;28;20063;-42
2022/10/29 01:16:11;;;;;;;29.80;16.85;;;;;;;;;;2106195;28;20500;-43
2022/10/29 01:17:19;;;;;;;28.77;16.45;;;;;;;;;;2106212;28;20161;-42
2022/10/29 01:18:23;;;;;;;26.55;16.60;;;;;;;;;;2106398;28;20048;-42
2022/10/29 01:19:37;;;;;;;27.33;15.63;;;;;;;;;;2106183;28;20040;-42
2022/10/29 01:20:53;;;;;;;28.27;15.45;;;;;;;;;;2106259;28;20048;-42
2022/10/29 01:21:55;;;;;;;31.15;17.55;;;;;;;;;;2106209;28;20052;-42
2022/10/29 01:23:04;;;;;;;29.90;16.55;;;;;;;;;;2106508;28;20048;-45
2022/10/29 01:24:24;;;;;;;26.23;16.48;;;;;;;;;;2106249;28;20047;-45
2022/10/29 01:25:35;;;;;;;29.40;16.58;;;;;;;;;;2106153;28;20048;-45
2022/10/29 01:26:47;;;;;;;29.10;16.93;;;;;;;;;;2106152;28;20565;-46
2022/10/29 01:27:51;;;;;;;28.92;16.65;;;;;;;;;;2106203;28;20264;-46
2022/10/29 01:29:00;;;;;;;27.23;16.88;;;;;;;;;;2106278;28;20059;-45
2022/10/29 01:30:05;;;;;;;25.35;16.55;;;;;;;;;;2106128;28;20067;-42
2022/10/29 01:31:19;;;;;;;26.67;17.25;;;;;;;;;;2105689;28;20043;-42
2022/10/29 01:32:23;;;;;;;28.73;17.13;;;;;;;;;;2106141;28;20055;-42
2022/10/29 01:33:26;;;;;;;27.20;16.25;;;;;;;;;;2106108;28;20087;-42
2022/10/29 01:34:32;;;;;;;26.48;17.40;;;;;;;;;;2106255;28;20059;-42
2022/10/29 01:35:39;;;;;;;26.15;17.38;;;;;;;;;;2106284;28;20040;-42
2022/10/29 01:36:43;;;;;;;30.27;18.48;;;;;;;;;;2105957;28;20055;-42
2022/10/29 01:37:51;;;;;;;31.83;17.88;;;;;;;;;;2106206;28;20047;-42
2022/10/29 01:38:55;;;;;;;28.50;16.90;;;;;;;;;;2106174;28;20416;-42
2022/10/29 01:39:57;;;;;;;29.02;16.30;;;;;;;;;;2106250;28;20094;-42
2022/10/29 01:41:00;;;;;;;29.70;17.55;;;;;;;;;;2106100;28;20048;-42
2022/10/29 01:42:03;;;;;;;34.42;18.42;;;;;;;;;;2106167;28;20382;-44
2022/10/29 01:43:06;;;;;;;29.70;18.38;;;;;;;;;;2106061;28;20052;-45
2022/10/29 01:44:10;;;;;;;31.55;18.85;;;;;;;;;;2106074;28;20044;-46
2022/10/29 01:45:14;;;;;;;29.05;17.40;;;;;;;;;;2106032;28;20055;-46
2022/10/29 01:46:18;;;;;;;26.30;17.20;;;;;;;;;;2106025;28;20036;-46
2022/10/29 01:47:21;;;;;;;28.85;17.55;;;;;;;;;;2106054;28;20109;-45
2022/10/29 01:48:25;;;;;;;27.42;16.65;;;;;;;;;;2106024;28;20052;-45
2022/10/29 01:49:34;;;;;;;26.85;17.38;;;;;;;;;;2106090;28;20480;-46
2022/10/29 01:50:36;;;;;;;26.48;16.52;;;;;;;;;;2106241;28;20051;-45
2022/10/29 01:51:38;;;;;;;26.85;15.50;;;;;;;;;;2105990;28;20085;-45
2022/10/29 01:52:39;;;;;;;;;;;;;;;;;;2106437;28;20131;-45
2022/10/29 01:53:40;;;;;;;25.52;16.95;;;;;;;;;;2106011;28;19965;-46
2022/10/29 01:54:42;;;;;;;25.83;16.60;;;;;;;;;;2105977;28;20048;-46
2022/10/29 01:55:43;;;;;;;25.38;17.05;;;;;;;;;;2106071;28;20101;-45
2022/10/29 01:56:51;;;;;;;25.65;16.55;;;;;;;;;;2106042;28;20052;-46
2022/10/29 01:57:53;;;;;;;27.40;16.10;;;;;;;;;;2106025;28;20398;-45
2022/10/29 01:58:56;;;;;;;29.50;17.08;;;;;;;;;;2105975;28;20048;-46
2022/10/29 01:59:59;;;;;;;29.25;17.58;;;;;;;;;;2105933;28;20055;-46
2022/10/29 02:01:05;;;;;;;28.92;17.15;;;;;;;;;;2105842;28;20066;-46
2022/10/29 02:02:13;;;;;;;26.38;17.55;;;;;;;;;;2105956;28;20040;-45
2022/10/29 02:03:19;;;;;;;28.17;17.00;;;;;;;;;;2106128;28;20070;-45
2022/10/29 02:04:34;;;;;;;30.00;16.80;;;;;;;;;;2106021;28;20098;-45
2022/10/29 02:05:38;;;;;;;34.40;17.42;;;;;;;;;;2105962;28;20477;-45
2022/10/29 02:06:44;;;;;;;29.00;18.25;;;;;;;;;;2105815;28;20051;-46
2022/10/29 02:07:48;;;;;;;30.65;18.10;;;;;;;;;;2106100;28;20048;-46
2022/10/29 02:08:53;;;;;;;32.03;18.42;;;;;;;;;;2105849;28;20044;-45
2022/10/29 02:09:57;;;;;;;32.00;18.48;;;;;;;;;;2105821;28;20097;-46
2022/10/29 02:11:01;;;;;;;31.63;18.02;;;;;;;;;;2105767;28;20708;-45
2022/10/29 02:12:04;;;;;;;30.83;18.85;;;;;;;;;;2105938;28;20052;-45
2022/10/29 02:13:06;;;;;;;35.85;20.30;;;;;;;;;;2105925;28;20048;-45
2022/10/29 02:14:11;;;;;;;34.70;19.95;;;;;;;;;;2105913;28;20052;-45
2022/10/29 02:15:16;;;;;;;33.13;19.92;;;;;;;;;;2105966;28;20044;-46
2022/10/29 02:16:18;;;;;;;29.60;18.13;;;;;;;;;;2105803;28;20048;-44
2022/10/29 02:17:18;;;;;;;32.13;19.05;;;;;;;;;;2105883;28;20063;-45
2022/10/29 02:18:21;;;;;;;30.02;18.33;;;;;;;;;;2105928;28;20058;-42
2022/10/29 02:19:22;;;;;;;30.98;17.50;;;;;;;;;;2105804;28;20050;-45
2022/10/29 02:20:23;;;;;;;30.73;19.17;;;;;;;;;;2105898;28;20047;-46
2022/10/29 02:21:24;;;;;;;32.78;18.95;;;;;;;;;;2105850;28;20515;-46
2022/10/29 02:22:25;;;;;;;29.88;19.05;;;;;;;;;;2106095;28;20050;-45
2022/10/29 02:23:27;;;;;;;31.83;17.65;;;;;;;;;;2106213;28;20052;-42
2022/10/29 02:24:28;;;;;;;35.67;19.80;;;;;;;;;;2105825;28;20052;-42
2022/10/29 02:25:29;;;;;;;31.90;19.35;;;;;;;;;;2106019;28;20062;-42
2022/10/29 02:26:31;;;;;;;30.40;19.10;;;;;;;;;;2105732;28;20075;-42
2022/10/29 02:27:32;;;;;;;32.00;19.52;;;;;;;;;;2105977;28;20098;-42
2022/10/29 02:28:33;;;;;;;29.38;19.00;;;;;;;;;;2105940;28;20056;-42
2022/10/29 02:29:33;;;;;;;30.75;18.95;;;;;;;;;;2105930;28;20055;-42
2022/10/29 02:30:35;;;;;;;30.87;19.07;;;;;;;;;;2105863;28;20054;-42
2022/10/29 02:31:36;;;;;;;29.92;19.27;;;;;;;;;;2105707;28;20044;-42
2022/10/29 02:32:37;;;;;;;29.93;18.40;;;;;;;;;;2105734;28;20055;-42
2022/10/29 02:33:39;;;;;;;30.65;18.20;;;;;;;;;;2105836;28;20045;-42
2022/10/29 02:34:40;;;;;;;34.10;20.00;;;;;;;;;;2105884;28;20044;-42
2022/10/29 02:35:41;;;;;;;31.27;18.63;;;;;;;;;;2105794;28;20036;-42
2022/10/29 02:36:42;;;;;;;31.60;21.00;;;;;;;;;;2105697;28;20040;-42
2022/10/29 02:37:43;;;;;;;29.85;19.10;;;;;;;;;;2105836;28;20044;-42
2022/10/29 02:38:44;;;;;;;33.58;19.58;;;;;;;;;;2105928;28;20403;-45
2022/10/29 02:39:45;;;;;;;33.45;19.40;;;;;;;;;;2113436;28;20290;-45
2022/10/29 02:40:46;;;;;;;30.45;18.40;;;;;;;;;;2114337;28;20047;-45
2022/10/29 02:41:47;;;;;;;29.65;19.42;;;;;;;;;;2114296;28;20051;-45
2022/10/29 02:42:48;;;;;;;31.30;19.53;;;;;;;;;;2114632;28;20035;-45
2022/10/29 02:43:49;;;;;;;33.63;20.02;;;;;;;;;;2115819;28;20055;-45
2022/10/29 02:44:50;;;;;;;30.02;18.15;;;;;;;;;;2115639;28;20044;-45
2022/10/29 02:46:06;;;;;;;34.72;20.67;;;;;;;;;;2115888;28;20056;-41
2022/10/29 02:47:07;;;;;;;31.08;19.02;;;;;;;;;;2115608;28;20043;-45
2022/10/29 02:48:08;;;;;;;34.70;20.33;;;;;;;;;;2115985;28;20047;-45
2022/10/29 02:49:10;;;;;;;33.30;20.17;;;;;;;;;;2115679;28;20500;-46
2022/10/29 02:50:10;;;;;;;33.72;20.55;;;;;;;;;;2115674;28;20385;-45
2022/10/29 02:51:12;;;;;;;31.43;19.10;;;;;;;;;;2115604;28;20062;-45
2022/10/29 02:52:13;;;;;;;34.55;20.65;;;;;;;;;;2115534;28;20422;-46
2022/10/29 02:53:14;;;;;;;29.75;18.92;;;;;;;;;;2115828;28;20047;-42
2022/10/29 02:54:15;;;;;;;28.70;19.88;;;;;;;;;;2115390;28;20048;-42
2022/10/29 02:55:16;;;;;;;39.17;20.53;;;;;;;;;;2115871;28;20130;-42
2022/10/29 02:56:20;;;;;;;35.25;20.25;;;;;;;;;;2115585;28;20048;-42
2022/10/29 02:57:21;;;;;;;33.63;20.58;;;;;;;;;;2115182;28;20046;-45
2022/10/29 02:58:22;;;;;;;29.85;19.33;;;;;;;;;;2115592;28;20097;-45
2022/10/29 02:59:28;;;;;;;32.28;20.23;;;;;;;;;;2115688;28;20062;-45
2022/10/29 03:00:28;;;;;;;33.58;20.42;;;;;;;;;;2115818;28;20059;-45
2022/10/29 03:01:30;;;;;;;31.75;20.02;;;;;;;;;;2116083;28;20043;-42
2022/10/29 03:02:31;;;;;;;33.25;20.52;;;;;;;;;;2115451;28;20480;-42
2022/10/29 03:03:32;;;;;;;35.33;20.95;;;;;;;;;;2115901;28;20071;-41
2022/10/29 03:04:34;;;;;;;29.60;20.05;;;;;;;;;;2115845;28;20048;-46
2022/10/29 03:05:36;;;;;;;30.58;20.27;;;;;;;;;;2115641;28;20047;-46
2022/10/29 03:06:37;;;;;;;33.75;20.40;;;;;;;;;;2108172;28;20044;-46
2022/10/29 03:07:38;;;;;;;30.10;19.77;;;;;;;;;;2107282;28;20465;-45
2022/10/29 03:08:39;;;;;;;35.08;20.15;;;;;;;;;;2107219;28;20052;-45
2022/10/29 03:09:40;;;;;;;30.88;19.42;;;;;;;;;;2107075;28;20546;-46
2022/10/29 03:10:41;;;;;;;36.72;20.40;;;;;;;;;;2107198;28;20048;-45
2022/10/29 03:11:42;;;;;;;35.53;20.63;;;;;;;;;;2107153;28;20499;-42
2022/10/29 03:12:43;;;;;;;35.20;20.40;;;;;;;;;;2107015;28;20048;-42
2022/10/29 03:13:44;;;;;;;33.37;20.63;;;;;;;;;;2107056;28;20051;-42
2022/10/29 03:14:45;;;;;;;31.70;20.23;;;;;;;;;;2107071;28;20059;-41
2022/10/29 03:15:46;;;;;;;33.53;19.45;;;;;;;;;;2107145;28;20044;-42
2022/10/29 03:16:47;;;;;;;30.15;20.00;;;;;;;;;;2107196;28;20040;-42
2022/10/29 03:17:48;;;;;;;30.07;19.47;;;;;;;;;;2107621;28;20044;-45
2022/10/29 03:18:49;;;;;;;34.85;20.92;;;;;;;;;;2106977;28;20055;-46
2022/10/29 03:19:51;;;;;;;30.77;20.00;;;;;;;;;;2107065;28;20108;-45
2022/10/29 03:20:52;;;;;;;35.97;21.05;;;;;;;;;;2106915;28;20052;-45
2022/10/29 03:21:53;;;;;;;35.10;20.47;;;;;;;;;;2106974;28;20048;-45
2022/10/29 03:22:54;;;;;;;36.70;21.13;;;;;;;;;;2107023;28;20056;-45
2022/10/29 03:23:55;;;;;;;33.00;21.33;;;;;;;;;;2107150;28;20056;-45
2022/10/29 03:24:56;;;;;;;38.45;21.67;;;;;;;;;;2106928;28;20079;-46
2022/10/29 03:25:57;;;;;;;34.03;21.27;;;;;;;;;;2107071;28;20048;-45
2022/10/29 03:26:58;;;;;;;30.70;19.85;;;;;;;;;;2106903;28;20052;-45
2022/10/29 03:27:59;;;;;;;32.17;19.77;;;;;;;;;;2107252;28;20052;-42
2022/10/29 03:29:00;;;;;;;30.38;19.70;;;;;;;;;;2106999;28;20048;-42
2022/10/29 03:30:01;;;;;;;32.40;20.20;;;;;;;;;;2106922;28;20044;-41
2022/10/29 03:31:02;;;;;;;32.25;20.30;;;;;;;;;;2107027;28;20056;-42
2022/10/29 03:32:03;;;;;;;34.45;20.75;;;;;;;;;;2106886;28;20500;-42
2022/10/29 03:33:04;;;;;;;34.95;20.92;;;;;;;;;;2106979;28;20657;-42
2022/10/29 03:34:06;;;;;;;29.23;19.60;;;;;;;;;;2106955;28;20129;-41
2022/10/29 03:35:08;;;;;;;33.83;20.70;;;;;;;;;;2107095;28;20080;-42
2022/10/29 03:36:09;;;;;;;33.35;19.80;;;;;;;;;;2106574;28;20051;-41
2022/10/29 03:37:10;;;;;;;38.80;20.70;;;;;;;;;;2107017;28;20040;-42
2022/10/29 03:38:11;;;;;;;31.60;19.83;;;;;;;;;;2107154;28;20468;-45
2022/10/29 03:39:12;;;;;;;31.95;20.30;;;;;;;;;;2106872;28;20381;-46
2022/10/29 03:40:13;;;;;;;32.45;19.42;;;;;;;;;;2106870;28;20056;-45
2022/10/29 03:41:14;;;;;;;32.83;19.58;;;;;;;;;;2106710;28;20511;-45
2022/10/29 03:42:15;;;;;;;29.13;17.93;;;;;;;;;;2107033;28;20093;-45
2022/10/29 03:43:16;;;;;;;27.70;18.73;;;;;;;;;;2106848;28;20048;-46
2022/10/29 03:44:17;;;;;;;31.10;19.03;;;;;;;;;;2106988;28;20048;-45
2022/10/29 03:45:18;;;;;;;33.47;19.95;;;;;;;;;;2107084;28;20081;-45
2022/10/29 03:46:19;;;;;;;34.22;20.75;;;;;;;;;;2106916;28;20079;-45
2022/10/29 03:47:20;;;;;;;31.40;19.65;;;;;;;;;;2106866;28;20059;-46
2022/10/29 03:48:22;;;;;;;36.53;20.03;;;;;;;;;;2106843;28;20044;-46
2022/10/29 03:49:23;;;;;;;31.00;20.35;;;;;;;;;;2106778;28;20060;-46
2022/10/29 03:50:24;;;;;;;33.83;21.43;;;;;;;;;;2107176;28;20056;-42
2022/10/29 03:51:25;;;;;;;31.92;20.95;;;;;;;;;;2106863;28;20273;-42
2022/10/29 03:52:27;;;;;;;39.97;22.90;;;;;;;;;;2106714;28;20047;-41
2022/10/29 03:53:28;;;;;;;35.70;22.63;;;;;;;;;;2106387;28;20825;-41
2022/10/29 03:54:29;;;;;;;36.70;21.60;;;;;;;;;;2106764;28;20048;-42
2022/10/29 03:55:30;;;;;;;31.77;20.63;;;;;;;;;;2106897;28;20097;-42
2022/10/29 03:56:31;;;;;;;28.55;19.10;;;;;;;;;;2106763;28;20481;-42
2022/10/29 03:57:32;;;;;;;34.60;22.88;;;;;;;;;;2106901;28;20051;-42
2022/10/29 03:58:33;;;;;;;37.30;20.40;;;;;;;;;;2106870;28;20079;-42
2022/10/29 03:59:34;;;;;;;33.22;20.77;;;;;;;;;;2106818;28;20069;-41
2022/10/29 04:00:35;;;;;;;37.77;21.27;;;;;;;;;;2106897;28;20087;-42
2022/10/29 04:01:36;;;;;;;36.97;22.02;;;;;;;;;;2106627;28;20421;-42
2022/10/29 04:02:37;;;;;;;36.13;21.50;;;;;;;;;;2106539;28;20511;-44
2022/10/29 04:03:41;;;;;;;38.65;22.65;;;;;;;;;;2107152;28;20044;-44
2022/10/29 04:04:42;;;;;;;40.58;23.08;;;;;;;;;;2106759;28;20040;-43
2022/10/29 04:05:43;;;;;;;36.85;22.00;;;;;;;;;;2106754;28;20044;-43
2022/10/29 04:06:44;;;;;;;36.03;21.45;;;;;;;;;;2106605;28;20044;-43
2022/10/29 04:07:45;;;;;;;35.63;21.73;;;;;;;;;;2106770;28;20055;-43
2022/10/29 04:08:46;;;;;;;39.03;22.43;;;;;;;;;;2106830;28;20550;-43
2022/10/29 04:09:47;;;;;;;36.30;22.45;;;;;;;;;;2106834;28;20048;-43
2022/10/29 04:10:49;;;;;;;33.10;22.47;;;;;;;;;;2106968;28;20040;-43
2022/10/29 04:11:50;;;;;;;39.90;22.73;;;;;;;;;;2106789;28;20085;-43
2022/10/29 04:12:51;;;;;;;38.17;22.80;;;;;;;;;;2106530;28;20044;-43
2022/10/29 04:13:52;;;;;;;36.08;22.23;;;;;;;;;;2106720;28;20051;-43
2022/10/29 04:14:54;;;;;;;36.80;22.25;;;;;;;;;;2106571;28;20489;-43
2022/10/29 04:15:55;;;;;;;34.95;21.75;;;;;;;;;;2106671;28;20063;-43
2022/10/29 04:16:56;;;;;;;33.35;21.15;;;;;;;;;;2106670;28;20105;-44
2022/10/29 04:17:57;;;;;;;35.60;21.85;;;;;;;;;;2106858;28;20051;-44
2022/10/29 04:18:59;;;;;;;36.05;21.65;;;;;;;;;;2106579;28;20056;-43
2022/10/29 04:20:00;;;;;;;36.53;21.30;;;;;;;;;;2106709;28;20048;-43
2022/10/29 04:21:02;;;;;;;35.93;20.70;;;;;;;;;;2106581;28;20083;-44
2022/10/29 04:22:23;;;;;;;32.80;20.88;;;;;;;;;;2106472;28;20504;-43
2022/10/29 04:23:44;;;;;;;32.92;19.98;;;;;;;;;;2106602;28;20044;-43
2022/10/29 04:25:05;;;;;;;32.22;20.02;;;;;;;;;;2106685;28;20047;-46
2022/10/29 04:26:26;;;;;;;34.35;21.40;;;;;;;;;;2106308;28;20048;-46
2022/10/29 04:27:47;;;;;;;28.35;18.50;;;;;;;;;;2106319;28;20101;-46
2022/10/29 04:29:08;;;;;;;31.20;20.40;;;;;;;;;;2106624;28;20047;-43
2022/10/29 04:30:09;;;;;;;35.83;21.15;;;;;;;;;;2106463;28;20446;-43
2022/10/29 04:31:11;;;;;;;35.15;20.05;;;;;;;;;;2106440;28;20512;-44
2022/10/29 04:32:12;;;;;;;30.98;20.02;;;;;;;;;;2106656;28;20059;-43
2022/10/29 04:33:13;;;;;;;33.83;21.17;;;;;;;;;;2106779;28;20051;-46
2022/10/29 04:34:14;;;;;;;29.13;19.42;;;;;;;;;;2106537;28;20519;-46
2022/10/29 04:35:16;;;;;;;29.63;19.10;;;;;;;;;;2106557;28;20075;-46
2022/10/29 04:36:17;;;;;;;33.63;21.27;;;;;;;;;;2106331;28;20048;-46
2022/10/29 04:37:18;;;;;;;35.65;21.55;;;;;;;;;;2106522;28;20040;-47
2022/10/29 04:38:19;;;;;;;32.83;19.90;;;;;;;;;;2106661;28;20416;-43
2022/10/29 04:39:21;;;;;;;30.95;19.90;;;;;;;;;;2106806;28;20056;-47
2022/10/29 04:40:24;;;;;;;35.53;20.75;;;;;;;;;;2106487;28;20495;-46
2022/10/29 04:41:25;;;;;;;30.40;18.43;;;;;;;;;;2106471;28;20068;-46
2022/10/29 04:42:26;;;;;;;27.73;18.02;;;;;;;;;;2106615;28;20097;-46
2022/10/29 04:43:27;;;;;;;27.10;18.43;;;;;;;;;;2106608;28;20052;-46
2022/10/29 04:44:28;;;;;;;27.60;18.15;;;;;;;;;;2106628;28;20477;-46
2022/10/29 04:45:29;;;;;;;25.70;17.20;;;;;;;;;;2106608;28;20135;-46
2022/10/29 04:46:30;;;;;;;25.67;17.33;;;;;;;;;;2106351;28;20071;-47
2022/10/29 04:47:31;;;;;;;27.17;17.35;;;;;;;;;;2106670;28;20457;-46
2022/10/29 04:48:32;;;;;;;27.90;18.38;;;;;;;;;;2106381;28;20472;-46
2022/10/29 04:49:33;;;;;;;28.00;16.53;;;;;;;;;;2106428;28;20181;-45
2022/10/29 04:50:35;;;;;;;34.47;20.42;;;;;;;;;;2106432;28;20055;-46
2022/10/29 04:51:37;;;;;;;34.45;21.35;;;;;;;;;;2106445;28;20048;-47
2022/10/29 04:52:38;;;;;;;32.00;19.38;;;;;;;;;;2106288;28;20051;-47
2022/10/29 04:53:39;;;;;;;33.75;20.40;;;;;;;;;;2106346;28;20395;-46
2022/10/29 04:54:40;;;;;;;40.55;22.23;;;;;;;;;;2106419;28;20051;-46
2022/10/29 04:55:42;;;;;;;38.00;21.30;;;;;;;;;;2106413;28;20086;-46
2022/10/29 04:56:43;;;;;;;36.00;21.60;;;;;;;;;;2106741;28;20048;-46
2022/10/29 04:57:48;;;;;;;35.67;21.40;;;;;;;;;;2106546;28;20497;-43
2022/10/29 04:58:49;;;;;;;31.40;20.27;;;;;;;;;;2106338;28;20071;-46
2022/10/29 04:59:50;;;;;;;36.30;20.50;;;;;;;;;;2106303;28;20051;-46
2022/10/29 05:00:51;;;;;;;31.20;19.35;;;;;;;;;;2106382;28;20053;-45
2022/10/29 05:01:53;;;;;;;32.00;21.65;;;;;;;;;;2106316;28;20051;-45
2022/10/29 05:02:53;;;;;;;36.22;21.42;;;;;;;;;;2106383;28;20085;-46
2022/10/29 05:03:55;;;;;;;36.45;21.60;;;;;;;;;;2106417;28;20105;-46
2022/10/29 05:05:00;;;;;;;37.28;21.38;;;;;;;;;;2106328;28;20071;-43
2022/10/29 05:06:02;;;;;;;36.60;22.23;;;;;;;;;;2105571;28;20135;-43
2022/10/29 05:07:03;;;;;;;33.40;20.70;;;;;;;;;;2106718;28;20056;-43
2022/10/29 05:08:05;;;;;;;30.55;20.17;;;;;;;;;;2106705;28;20048;-46
2022/10/29 05:09:06;;;;;;;41.60;23.55;;;;;;;;;;2106472;28;20047;-43
2022/10/29 05:10:07;;;;;;;34.27;20.50;;;;;;;;;;2106468;28;20504;-43
2022/10/29 05:11:08;;;;;;;34.30;21.98;;;;;;;;;;2106212;28;20044;-43
2022/10/29 05:12:09;;;;;;;29.90;19.27;;;;;;;;;;2106314;28;20473;-43
2022/10/29 05:13:11;;;;;;;33.10;19.92;;;;;;;;;;2106304;28;20105;-43
2022/10/29 05:14:12;;;;;;;;;;;;;;;;;;2106695;28;20480;-43
2022/10/29 05:15:13;;;;;;;32.70;21.52;;;;;;;;;;2106457;28;19920;-43
2022/10/29 05:16:14;;;;;;;34.72;21.67;;;;;;;;;;2106170;28;20044;-44
2022/10/29 05:17:15;;;;;;;29.77;20.65;;;;;;;;;;2106249;28;20048;-43
2022/10/29 05:18:16;;;;;;;29.23;18.95;;;;;;;;;;2106572;28;20090;-43
2022/10/29 05:19:17;;;;;;;35.67;21.07;;;;;;;;;;2106312;28;20133;-43
2022/10/29 05:20:18;;;;;;;30.35;19.38;;;;;;;;;;2106393;28;20401;-43
2022/10/29 05:21:19;;;;;;;32.33;21.17;;;;;;;;;;2106245;28;20051;-43
2022/10/29 05:22:21;;;;;;;35.90;20.73;;;;;;;;;;2106157;28;20044;-43
2022/10/29 05:23:22;;;;;;;28.10;18.65;;;;;;;;;;2106369;28;20433;-43
2022/10/29 05:24:23;;;;;;;34.83;22.55;;;;;;;;;;2106345;28;20044;-43
2022/10/29 05:25:24;;;;;;;33.60;20.80;;;;;;;;;;2106527;28;20063;-43
2022/10/29 05:26:25;;;;;;;33.05;20.80;;;;;;;;;;2106334;28;20508;-43
2022/10/29 05:27:26;;;;;;;37.40;22.45;;;;;;;;;;2106204;28;20048;-43
2022/10/29 05:28:27;;;;;;;36.45;24.38;;;;;;;;;;2106252;28;20051;-43
2022/10/29 05:29:28;;;;;;;39.20;23.77;;;;;;;;;;2106487;28;20477;-46
2022/10/29 05:30:29;;;;;;;41.35;24.77;;;;;;;;;;2106175;28;20048;-46
2022/10/29 05:31:30;;;;;;;41.10;25.00;;;;;;;;;;2106077;28;20101;-47
2022/10/29 05:32:31;;;;;;;40.88;24.10;;;;;;;;;;2106178;28;20048;-46
2022/10/29 05:33:32;;;;;;;41.60;25.15;;;;;;;;;;2106529;28;20043;-46
2022/10/29 05:34:33;;;;;;;45.30;25.05;;;;;;;;;;2106061;28;20039;-47
2022/10/29 05:35:35;;;;;;;44.25;25.02;;;;;;;;;;2106410;28;20218;-42
2022/10/29 05:36:36;;;;;;;39.15;24.05;;;;;;;;;;2105863;28;20394;-42
2022/10/29 05:37:37;;;;;;;39.65;23.50;;;;;;;;;;2106322;28;20412;-42
2022/10/29 05:38:39;;;;;;;40.88;24.88;;;;;;;;;;2106566;28;20055;-46
2022/10/29 05:39:39;;;;;;;41.15;25.58;;;;;;;;;;2106585;28;20051;-45
2022/10/29 05:40:43;;;;;;;47.17;26.70;;;;;;;;;;2106234;28;20040;-46
2022/10/29 05:41:44;;;;;;;43.30;26.45;;;;;;;;;;2106066;28;20054;-45
2022/10/29 05:42:46;;;;;;;37.97;24.20;;;;;;;;;;2106003;28;20044;-45
2022/10/29 05:43:48;;;;;;;45.97;26.52;;;;;;;;;;2106234;28;20048;-46
2022/10/29 05:44:49;;;;;;;41.30;25.30;;;;;;;;;;2106019;28;20047;-45
2022/10/29 05:45:50;;;;;;;42.25;24.90;;;;;;;;;;2105971;28;20420;-47
2022/10/29 05:46:51;;;;;;;44.38;24.63;;;;;;;;;;2106307;28;20082;-46
2022/10/29 05:47:56;;;;;;;45.10;25.02;;;;;;;;;;2106344;28;20048;-46
2022/10/29 05:48:57;;;;;;;37.63;24.52;;;;;;;;;;2106003;28;20564;-46
2022/10/29 05:49:58;;;;;;;46.58;25.15;;;;;;;;;;2106253;28;20404;-45
2022/10/29 05:50:59;;;;;;;38.03;23.75;;;;;;;;;;2106210;28;20059;-46
2022/10/29 05:52:00;;;;;;;41.53;23.17;;;;;;;;;;2106393;28;20055;-45
2022/10/29 05:53:02;;;;;;;38.28;23.77;;;;;;;;;;2106503;28;20471;-43
2022/10/29 05:54:04;;;;;;;34.75;22.63;;;;;;;;;;2105954;28;20101;-43
2022/10/29 05:55:05;;;;;;;39.83;23.77;;;;;;;;;;2106352;28;20052;-46
2022/10/29 05:56:06;;;;;;;39.20;23.33;;;;;;;;;;2105983;28;20280;-46
2022/10/29 05:57:07;;;;;;;40.63;22.90;;;;;;;;;;2106068;28;20048;-46
2022/10/29 05:58:09;;;;;;;39.63;22.42;;;;;;;;;;2105907;28;20493;-46
2022/10/29 05:59:10;;;;;;;43.72;24.02;;;;;;;;;;2106208;28;20044;-44
2022/10/29 06:00:11;;;;;;;45.42;24.08;;;;;;;;;;2106230;28;20062;-43
2022/10/29 06:01:13;;;;;;;41.33;23.17;;;;;;;;;;2106063;28;20051;-46
2022/10/29 06:02:14;;;;;;;39.28;23.42;;;;;;;;;;2106241;28;20059;-44
2022/10/29 06:03:16;;;;;;;35.60;19.48;;;;;;;;;;2105995;28;20493;-44
2022/10/29 06:04:17;;;;;;;40.63;21.60;;;;;;;;;;2106066;28;20079;-43